createdAt,value
2019-03-28T00:03:39.190Z,11.20
2019-03-28T00:07:38.122Z,11.27
2019-03-28T00:11:37.585Z,11.07
2019-03-28T00:15:36.275Z,10.73
2019-03-28T00:19:34.889Z,11.27
2019-03-28T00:23:40.882Z,11.33
2019-03-28T00:27:39.490Z,11.70
2019-03-28T00:31:39.139Z,11.90
2019-03-28T00:35:37.736Z,12.20
2019-03-28T00:39:40.329Z,12.07
2019-03-28T00:43:38.977Z,11.27
2019-03-28T00:47:37.599Z,12.30
2019-03-28T00:51:36.242Z,12.27
2019-03-28T00:55:34.892Z,13.10
2019-03-28T00:59:35.655Z,10.77
2019-03-28T01:03:34.231Z,11.40
2019-03-28T01:07:32.833Z,10.57
2019-03-28T01:11:31.446Z,10.87
2019-03-28T01:15:33.083Z,11.67
2019-03-28T01:19:31.785Z,11.47
2019-03-28T01:23:30.423Z,12.60
2019-03-28T01:27:29.028Z,12.07
2019-03-28T01:31:27.672Z,12.47
2019-03-28T01:35:26.385Z,13.03
2019-03-28T01:39:24.987Z,12.63
2019-03-28T01:43:23.702Z,12.50
2019-03-28T01:47:22.302Z,11.87
2019-03-28T01:51:20.913Z,12.03
2019-03-28T01:55:19.563Z,11.97
2019-03-28T01:59:18.181Z,12.60
2019-03-28T02:03:46.855Z,13.33
2019-03-28T02:07:17.074Z,13.83
2019-03-28T02:11:15.984Z,12.53
2019-03-28T02:15:15.109Z,12.37
2019-03-28T02:19:13.883Z,13.00
2019-03-28T02:23:15.493Z,13.60
2019-03-28T02:27:23.488Z,12.23
2019-03-28T02:31:14.495Z,12.97
2019-03-28T02:35:15.275Z,12.07
2019-03-28T02:39:14.636Z,13.30
2019-03-28T02:43:13.356Z,12.30
2019-03-28T02:47:12.258Z,13.47
2019-03-28T02:51:10.948Z,13.27
2019-03-28T02:55:10.263Z,12.10
2019-03-28T02:59:09.427Z,14.60
2019-03-28T03:03:08.031Z,13.47
2019-03-28T03:07:06.971Z,13.53
2019-03-28T03:11:07.198Z,13.10
2019-03-28T03:15:07.991Z,12.83
2019-03-28T03:19:06.739Z,13.37
2019-03-28T03:23:05.742Z,14.10
2019-03-28T03:27:04.734Z,13.57
2019-03-28T03:31:03.443Z,14.37
2019-03-28T03:35:02.374Z,13.93
2019-03-28T03:39:11.977Z,14.77
2019-03-28T03:43:11.131Z,13.40
2019-03-28T03:47:09.876Z,13.83
2019-03-28T03:51:08.611Z,12.40
2019-03-28T03:55:08.210Z,13.60
2019-03-28T03:59:06.844Z,12.87
2019-03-28T04:03:06.232Z,12.83
2019-03-28T04:07:09.567Z,13.43
2019-03-28T04:11:09.326Z,14.70
2019-03-28T04:15:10.249Z,14.33
2019-03-28T04:19:08.968Z,15.20
2019-03-28T04:23:08.005Z,15.20
2019-03-28T04:27:07.000Z,15.90
2019-03-28T04:31:06.004Z,14.67
2019-03-28T04:35:08.384Z,13.63
2019-03-28T04:39:07.387Z,13.97
2019-03-28T04:43:06.085Z,15.13
2019-03-28T04:47:06.778Z,14.07
2019-03-28T04:51:05.628Z,14.63
2019-03-28T04:55:05.862Z,15.77
2019-03-28T04:59:04.861Z,15.00
2019-03-28T05:03:06.398Z,15.30
2019-03-28T05:07:05.326Z,14.17
2019-03-28T05:11:03.929Z,15.03
2019-03-28T05:15:02.688Z,14.80
2019-03-28T05:19:04.181Z,15.23
2019-03-28T05:23:02.853Z,14.93
2019-03-28T05:27:01.574Z,15.60
2019-03-28T05:31:00.259Z,15.07
2019-03-28T05:35:00.211Z,15.33
2019-03-28T05:38:59.192Z,14.53
2019-03-28T05:42:57.889Z,14.97
2019-03-28T05:46:56.559Z,15.53
2019-03-28T05:50:55.279Z,16.13
2019-03-28T05:54:53.977Z,15.40
2019-03-28T05:58:52.970Z,14.97
2019-03-28T06:02:51.984Z,15.03
2019-03-28T06:06:50.850Z,17.07
2019-03-28T06:10:49.694Z,26.80
2019-03-28T06:14:49.435Z,17.23
2019-03-28T06:18:48.309Z,16.57
2019-03-28T06:22:49.008Z,16.07
2019-03-28T06:26:49.972Z,15.57
2019-03-28T06:31:02.831Z,17.07
2019-03-28T06:35:01.494Z,16.37
2019-03-28T06:39:00.525Z,16.70
2019-03-28T06:42:59.563Z,15.87
2019-03-28T06:47:00.372Z,16.67
2019-03-28T06:51:01.837Z,16.33
2019-03-28T06:55:00.529Z,16.97
2019-03-28T06:58:59.304Z,16.57
2019-03-28T07:02:58.231Z,16.97
2019-03-28T07:06:56.898Z,17.90
2019-03-28T07:10:57.989Z,17.27
2019-03-28T07:14:59.355Z,15.43
2019-03-28T07:18:56.776Z,15.13
2019-03-28T07:22:55.707Z,16.03
2019-03-28T07:26:55.901Z,16.60
2019-03-28T07:30:56.782Z,17.00
2019-03-28T07:34:58.243Z,17.47
2019-03-28T07:38:57.007Z,15.83
2019-03-28T07:42:55.948Z,16.40
2019-03-28T07:46:54.610Z,15.50
2019-03-28T07:50:53.311Z,15.30
2019-03-28T07:54:58.176Z,14.60
2019-03-28T07:58:57.252Z,14.07
2019-03-28T08:02:58.367Z,15.30
2019-03-28T08:06:56.719Z,14.43
2019-03-28T08:10:58.361Z,13.33
2019-03-28T08:14:59.324Z,11.03
2019-03-28T08:18:57.810Z,11.80
2019-03-28T08:22:56.723Z,10.70
2019-03-28T08:26:55.732Z,11.60
2019-03-28T08:30:54.730Z,12.10
2019-03-28T08:34:53.736Z,11.27
2019-03-28T08:38:53.051Z,11.93
2019-03-28T08:42:51.638Z,10.93
2019-03-28T08:46:53.385Z,10.60
2019-03-28T08:50:52.024Z,10.33
2019-03-28T08:54:50.661Z,9.87
2019-03-28T08:58:51.476Z,7.77
2019-03-28T09:02:50.078Z,8.70
2019-03-28T09:06:51.644Z,8.57
2019-03-28T09:10:50.604Z,8.37
2019-03-28T09:14:49.210Z,8.23
2019-03-28T09:18:47.996Z,9.03
2019-03-28T09:22:49.428Z,9.30
2019-03-28T09:26:48.054Z,8.70
2019-03-28T09:30:49.194Z,8.27
2019-03-28T09:34:47.387Z,7.33
2019-03-28T09:38:46.393Z,7.47
2019-03-28T09:42:45.491Z,8.07
2019-03-28T09:50:57.468Z,7.93
2019-03-28T09:54:56.469Z,6.93
2019-03-28T09:58:55.472Z,5.70
2019-03-28T10:02:54.349Z,5.67
2019-03-28T10:06:53.272Z,5.47
2019-03-28T10:10:51.973Z,5.70
2019-03-28T10:14:51.155Z,5.53
2019-03-28T10:18:50.185Z,6.20
2019-03-28T10:22:49.090Z,6.43
2019-03-28T10:26:47.880Z,5.97
2019-03-28T10:30:47.112Z,6.70
2019-03-28T10:34:45.887Z,7.83
2019-03-28T10:38:44.888Z,7.90
2019-03-28T10:42:43.485Z,6.63
2019-03-28T10:46:42.152Z,7.77
2019-03-28T10:50:45.332Z,6.90
2019-03-28T10:54:41.642Z,7.83
2019-03-28T10:58:40.400Z,6.53
2019-03-28T11:02:39.192Z,7.03
2019-03-28T11:06:37.831Z,6.13
2019-03-28T11:10:36.590Z,6.77
2019-03-28T11:14:35.591Z,6.10
2019-03-28T11:18:34.620Z,7.00
2019-03-28T11:22:37.077Z,6.43
2019-03-28T11:26:35.778Z,6.80
2019-03-28T11:30:34.420Z,7.40
2019-03-28T11:34:36.624Z,7.03
2019-03-28T11:38:35.336Z,7.00
2019-03-28T11:42:36.627Z,7.73
2019-03-28T11:46:35.319Z,9.27
2019-03-28T11:50:34.322Z,8.90
2019-03-28T11:54:32.954Z,9.67
2019-03-28T11:58:31.947Z,10.33
2019-03-28T12:02:31.029Z,10.77
2019-03-28T12:06:29.725Z,12.47
2019-03-28T12:10:30.570Z,11.33
2019-03-28T12:14:28.933Z,11.33
2019-03-28T12:18:27.961Z,12.40
2019-03-28T12:22:26.595Z,10.87
2019-03-28T12:26:25.842Z,10.90
2019-03-28T12:30:24.666Z,10.90
2019-03-28T12:34:23.665Z,13.00
2019-03-28T12:38:22.679Z,13.10
2019-03-28T12:42:21.650Z,13.33
2019-03-28T12:46:20.313Z,11.70
2019-03-28T12:50:19.680Z,12.00
2019-03-28T12:54:18.351Z,11.27
2019-03-28T12:58:19.094Z,10.70
2019-03-28T13:02:29.930Z,11.97
2019-03-28T13:06:18.531Z,14.67
2019-03-28T13:10:17.773Z,14.60
2019-03-28T13:14:16.772Z,13.67
2019-03-28T13:18:15.463Z,14.73
2019-03-28T13:22:16.617Z,14.00
2019-03-28T13:26:15.357Z,13.77
2019-03-28T13:30:15.847Z,15.63
2019-03-28T13:34:14.422Z,12.90
2019-03-28T13:38:12.991Z,13.47
2019-03-28T13:42:12.601Z,11.93
2019-03-28T13:46:11.402Z,12.83
2019-03-28T13:50:11.948Z,12.17
2019-03-28T13:54:10.641Z,12.30
2019-03-28T13:58:09.483Z,12.80
2019-03-28T14:02:08.078Z,14.23
2019-03-28T14:06:07.132Z,14.00
2019-03-28T14:10:08.824Z,13.70
2019-03-28T14:14:07.439Z,14.00
2019-03-28T14:18:06.050Z,14.87
2019-03-28T14:22:04.667Z,15.33
2019-03-28T14:26:03.401Z,16.80
2019-03-28T14:30:01.989Z,19.53
2019-03-28T14:34:00.552Z,18.83
2019-03-28T14:37:59.180Z,17.23
2019-03-28T14:41:57.792Z,20.93
2019-03-28T14:45:56.383Z,21.53
2019-03-28T14:49:55.040Z,20.30
2019-03-28T14:53:53.582Z,21.03
2019-03-28T14:57:52.276Z,19.30
2019-03-28T15:01:50.868Z,19.97
2019-03-28T15:05:50.045Z,18.03
2019-03-28T15:09:51.417Z,19.10
2019-03-28T15:13:51.806Z,18.37
2019-03-28T15:17:50.701Z,17.60
2019-03-28T15:21:49.333Z,17.40
2019-03-28T15:25:47.966Z,16.73
2019-03-28T15:29:46.624Z,18.03
2019-03-28T15:33:45.216Z,17.73
2019-03-28T15:37:43.813Z,18.77
2019-03-28T15:41:42.391Z,18.67
2019-03-28T15:45:40.970Z,22.23
2019-03-28T15:49:41.747Z,19.70
2019-03-28T15:53:40.452Z,20.80
2019-03-28T15:57:40.842Z,20.57
2019-03-28T16:01:39.514Z,21.63
2019-03-28T16:05:40.028Z,21.77
2019-03-28T16:09:39.028Z,22.13
2019-03-28T16:13:40.458Z,22.13
2019-03-28T16:17:41.969Z,22.33
2019-03-28T16:21:40.667Z,22.53
2019-03-28T16:25:39.326Z,22.33
2019-03-28T16:29:38.626Z,23.33
2019-03-28T16:33:37.213Z,20.40
2019-03-28T16:37:36.333Z,21.87
2019-03-28T16:41:36.895Z,22.67
2019-03-28T16:45:35.506Z,22.07
2019-03-28T16:49:34.469Z,22.20
2019-03-28T16:53:33.114Z,23.63
2019-03-28T16:57:31.730Z,23.30
2019-03-28T17:01:30.423Z,23.77
2019-03-28T17:05:29.930Z,23.03
2019-03-28T17:09:30.736Z,23.73
2019-03-28T17:13:29.324Z,24.53
2019-03-28T17:17:27.918Z,24.63
2019-03-28T17:21:26.710Z,21.90
2019-03-28T17:25:25.319Z,23.07
2019-03-28T17:29:24.085Z,21.97
2019-03-28T17:33:25.036Z,22.27
2019-03-28T17:37:24.135Z,22.47
2019-03-28T17:41:22.801Z,21.93
2019-03-28T17:45:21.384Z,20.50
2019-03-28T17:49:20.094Z,20.77
2019-03-28T17:53:20.217Z,20.70
2019-03-28T17:57:18.878Z,20.83
2019-03-28T18:01:17.468Z,21.60
2019-03-28T18:05:16.141Z,21.83
2019-03-28T18:09:14.782Z,20.80
2019-03-28T18:13:13.398Z,20.93
2019-03-28T18:17:12.038Z,21.97
2019-03-28T18:21:10.649Z,20.67
2019-03-28T18:25:13.632Z,21.33
2019-03-28T18:29:12.314Z,20.23
2019-03-28T18:33:11.238Z,21.40
2019-03-28T18:37:09.986Z,22.00
2019-03-28T18:41:08.590Z,22.17
2019-03-28T18:45:08.908Z,22.67
2019-03-28T18:49:07.499Z,23.70
2019-03-28T18:53:06.137Z,21.80
2019-03-28T18:57:04.873Z,19.90
2019-03-28T19:01:05.357Z,20.83
2019-03-28T19:05:19.068Z,20.20
2019-03-28T19:09:07.714Z,19.20
2019-03-28T19:13:06.246Z,19.00
2019-03-28T19:17:07.831Z,20.03
2019-03-28T19:21:05.499Z,19.53
2019-03-28T19:25:08.897Z,19.13
2019-03-28T19:29:08.730Z,20.13
2019-03-28T19:33:07.466Z,21.17
2019-03-28T19:37:06.121Z,20.03
2019-03-28T19:41:05.126Z,20.30
2019-03-28T19:45:05.089Z,20.27
2019-03-28T19:49:03.740Z,19.67
2019-03-28T19:53:02.860Z,20.87
2019-03-28T19:57:01.549Z,22.13
2019-03-28T20:01:00.150Z,19.93
2019-03-28T20:04:58.729Z,21.37
2019-03-28T20:08:57.339Z,19.87
2019-03-28T20:12:55.956Z,19.83
2019-03-28T20:16:54.633Z,21.13
2019-03-28T20:20:55.685Z,24.37
2019-03-28T20:24:53.557Z,24.80
2019-03-28T20:28:52.435Z,25.47
2019-03-28T20:32:51.057Z,24.50
2019-03-28T20:36:52.694Z,25.77
2019-03-28T20:40:58.617Z,27.57
2019-03-28T20:44:57.549Z,27.53
2019-03-28T20:48:57.193Z,25.23
2019-03-28T20:52:55.933Z,22.70
2019-03-28T20:56:57.730Z,28.63
2019-03-28T21:00:55.392Z,25.83
2019-03-28T21:04:55.626Z,27.57
2019-03-28T21:08:54.314Z,28.17
2019-03-28T21:12:53.842Z,27.60
2019-03-28T21:16:53.980Z,28.00
2019-03-28T21:20:58.751Z,27.17
2019-03-28T21:24:57.345Z,27.67
2019-03-28T21:28:55.959Z,25.90
2019-03-28T21:32:55.944Z,23.77
2019-03-28T21:36:54.962Z,27.97
2019-03-28T21:41:02.318Z,28.20
2019-03-28T21:45:00.992Z,27.57
2019-03-28T21:48:59.655Z,28.60
2019-03-28T21:52:58.951Z,29.13
2019-03-28T21:56:57.715Z,30.30
2019-03-28T22:00:56.941Z,26.47
2019-03-28T22:04:55.522Z,28.33
2019-03-28T22:08:54.106Z,25.80
2019-03-28T22:12:55.777Z,23.93
2019-03-28T22:17:02.839Z,25.03
2019-03-28T22:21:01.833Z,26.00
2019-03-28T22:25:05.565Z,23.23
2019-03-28T22:29:08.038Z,23.93
2019-03-28T22:33:06.720Z,24.80
2019-03-28T22:37:05.300Z,26.73
2019-03-28T22:41:04.049Z,24.73
2019-03-28T22:45:02.892Z,26.17
2019-03-28T22:49:01.553Z,25.83
2019-03-28T22:53:03.260Z,25.93
2019-03-28T22:57:01.899Z,26.33
2019-03-28T23:01:01.376Z,25.43
2019-03-28T23:05:00.042Z,24.87
2019-03-28T23:08:58.927Z,23.33
2019-03-28T23:12:57.804Z,24.30
2019-03-28T23:16:56.416Z,24.50
2019-03-28T23:20:55.118Z,24.40
2019-03-28T23:24:55.678Z,25.10
2019-03-28T23:28:54.577Z,23.03
2019-03-28T23:32:53.169Z,21.77
2019-03-28T23:36:53.975Z,22.67
2019-03-28T23:40:52.619Z,22.23
2019-03-28T23:44:51.236Z,23.60
2019-03-28T23:48:49.832Z,23.60
2019-03-28T23:52:48.467Z,22.87
2019-03-28T23:56:47.069Z,24.20
